Latest METAR Data

Below are the latest METARs ("Meteorological Services to Airmen Reports"), for RNAS Culdrose and Newquay Airport.

EGDR - RNAS Culdrose
Distance from station: SW 6mi, 9km
Updated: Thu, 01-Jan-1970 1:00am BST
NOT Current

 
Culdrose, United Kingdom (EGDR) 50-05N 005-15W 0M Jul 19, 2024 - 10:50 PM EDT / 2024.07.20 0250 UTC Wind: from the S (190 degrees) at 13 MPH (11 KT):0 Visibility: 1 mile(s):0 Sky conditions: overcast Weather: heavy drizzle Temperature: 62 F (17 C) Dew Point: 62 F (17 C) Relative Humidity: 100% Pressure (altimeter): 29.80 in. Hg (1009 hPa) ob: EGDR 200250Z AUTO 19011KT 2100 +DZ OVC002/// 17/17 Q1009 cycle: 3
EGHQ - Newquay Airport
Distance from station: NE 21mi, 34km
Updated: Sat, 20-Jul-2024 3:50am BST
Mostly Cloudy
Mostly Cloudy
 Wind from SSE
Wind: SSE 10 mph , 17 km/h
Temperature: 61°F , 16°C
Dew Point: 61°F , 16°C
Humidity: 100%
Barometer: 29.83 inHg , 1010 hPa
Clouds: Mostly Cloudy
Visibility: 6 miles , 10 km
Cloud details: Mostly Cloudy 300 ft
2024/07/20 02:50 EGHQ 200250Z AUTO 16009KT 9999 BKN003/// 16/16 Q1010
 
EGTE - Exeter Airport
Distance from station: ENE 88mi, 141km
Updated: Sat, 20-Jul-2024 3:20am BST
Few Clouds
Few Clouds
 Wind from S
Wind: S 6 mph , 9 km/h
Temperature: 63°F , 17°C
Dew Point: 61°F , 16°C
Humidity: 94%
Barometer: 29.85 inHg , 1011 hPa
Clouds: Few Clouds
Visibility: 6 miles , 10 km
Cloud details: Few Clouds 1500 ft
2024/07/20 02:20 EGTE 200220Z 17005KT 9999 FEW015 17/16 Q1011
EGHE - St Marys, IOS
Distance from station: W 51mi, 82km
Updated: Fri, 19-Jul-2024 5:20pm BST
NOT Current
Mostly Cloudy
Mostly Cloudy
 Wind from SW
Wind: SW 15 mph , 24 km/h
Temperature: 66°F , 19°C
Dew Point: 63°F , 17°C
Humidity: 88%
Barometer: 29.97 inHg , 1015 hPa
Clouds: Mostly Cloudy
Visibility: 6 miles , 10 km
Cloud details: Few Clouds 200 ft
Mostly Cloudy 600 ft
2024/07/19 16:20 EGHE 191620Z 22013KT 9999 FEW002 BKN006 19/17 Q1015

Metar display script from Saratoga-Weather.org

 

 

UK - WEATHER STATION TOPSITES - UK

Copyright © Carnkie Weather 2009 - 2024.